createdAt,value
2023-01-13T00:00:48.318Z,8.80
2023-01-13T00:03:15.007Z,8.80
2023-01-13T00:05:41.633Z,8.80
2023-01-13T00:08:08.342Z,8.80
2023-01-13T00:10:35.607Z,8.90
2023-01-13T00:13:03.187Z,8.90
2023-01-13T00:15:29.874Z,8.80
2023-01-13T00:17:56.485Z,8.90
2023-01-13T00:20:23.145Z,8.90
2023-01-13T00:22:49.842Z,8.80
2023-01-13T00:25:16.531Z,8.90
2023-01-13T00:27:43.143Z,8.90
2023-01-13T00:30:10.070Z,8.90
2023-01-13T00:32:36.773Z,8.90
2023-01-13T00:35:04.370Z,8.90
2023-01-13T00:37:31.022Z,8.80
2023-01-13T00:39:58.017Z,8.90
2023-01-13T00:42:43.461Z,8.90
2023-01-13T00:45:10.290Z,8.90
2023-01-13T00:47:36.925Z,9.00
2023-01-13T00:50:03.644Z,9.00
2023-01-13T00:52:31.726Z,9.00
2023-01-13T00:54:58.476Z,9.00
2023-01-13T00:57:25.102Z,8.90
2023-01-13T00:59:51.733Z,8.90
2023-01-13T01:02:18.464Z,9.00
2023-01-13T01:04:45.209Z,9.00
2023-01-13T01:07:11.839Z,9.00
2023-01-13T01:09:39.531Z,8.90
2023-01-13T01:12:06.407Z,8.90
2023-01-13T01:14:33.088Z,8.90
2023-01-13T01:16:59.745Z,8.90
2023-01-13T01:19:26.383Z,8.90
2023-01-13T01:21:52.987Z,8.90
2023-01-13T01:24:19.721Z,8.90
2023-01-13T01:26:46.442Z,8.80
2023-01-13T01:29:15.253Z,8.80
2023-01-13T01:31:42.042Z,8.90
2023-01-13T01:34:08.785Z,8.80
2023-01-13T01:36:36.659Z,8.80
2023-01-13T01:39:03.943Z,8.80
2023-01-13T01:41:31.860Z,8.70
2023-01-13T01:44:04.309Z,8.70
2023-01-13T01:46:32.783Z,8.80
2023-01-13T01:49:08.817Z,8.80
2023-01-13T01:51:38.758Z,8.90
2023-01-13T01:54:06.803Z,8.90
2023-01-13T01:56:34.061Z,8.90
2023-01-13T01:59:00.796Z,8.90
2023-01-13T02:01:27.975Z,8.90
2023-01-13T02:04:01.639Z,8.90
2023-01-13T02:06:29.768Z,8.90
2023-01-13T02:08:57.117Z,8.90
2023-01-13T02:11:47.682Z,8.90
2023-01-13T02:14:14.338Z,8.90
2023-01-13T02:16:47.057Z,8.90
2023-01-13T02:19:32.378Z,8.80
2023-01-13T02:22:06.227Z,8.80
2023-01-13T02:24:54.976Z,8.80
2023-01-13T02:27:30.712Z,8.80
2023-01-13T02:30:19.857Z,8.80
2023-01-13T02:32:46.451Z,8.90
2023-01-13T02:35:33.727Z,8.90
2023-01-13T02:38:01.119Z,8.90
2023-01-13T02:40:46.151Z,8.90
2023-01-13T02:43:42.001Z,8.90
2023-01-13T02:46:10.820Z,8.90
2023-01-13T02:48:38.430Z,8.90
2023-01-13T02:51:06.556Z,8.90
2023-01-13T02:53:39.193Z,8.80
2023-01-13T02:56:06.484Z,8.90
2023-01-13T02:58:35.310Z,8.80
2023-01-13T03:01:02.449Z,8.90
2023-01-13T03:03:29.135Z,8.90
2023-01-13T03:06:07.715Z,8.90
2023-01-13T03:08:47.704Z,8.90
2023-01-13T03:11:16.000Z,8.90
2023-01-13T03:13:47.586Z,8.90
2023-01-13T03:16:33.205Z,8.90
2023-01-13T03:19:08.848Z,8.90
2023-01-13T03:21:40.542Z,8.90
2023-01-13T03:24:17.881Z,8.90
2023-01-13T03:26:53.527Z,8.90
2023-01-13T03:29:22.179Z,8.90
2023-01-13T03:32:05.435Z,8.90
2023-01-13T03:34:34.335Z,8.90
2023-01-13T03:37:03.592Z,8.90
2023-01-13T03:39:32.596Z,8.90
2023-01-13T03:42:01.742Z,8.90
2023-01-13T03:44:33.853Z,8.90
2023-01-13T03:47:09.619Z,8.90
2023-01-13T03:49:36.445Z,9.00
2023-01-13T03:52:06.048Z,8.90
2023-01-13T03:54:34.473Z,8.80
2023-01-13T03:57:05.454Z,8.90
2023-01-13T03:59:35.885Z,8.80
2023-01-13T04:02:07.149Z,8.80
2023-01-13T04:04:36.318Z,8.80
2023-01-13T04:07:08.782Z,8.80
2023-01-13T04:09:40.222Z,8.70
2023-01-13T04:12:25.480Z,8.70
2023-01-13T04:14:52.568Z,8.70
2023-01-13T04:17:19.248Z,8.70
2023-01-13T04:19:45.888Z,8.70
2023-01-13T04:22:12.417Z,8.60
2023-01-13T04:24:38.932Z,8.60
2023-01-13T04:27:06.174Z,8.60
2023-01-13T04:29:32.754Z,8.60
2023-01-13T04:31:59.251Z,8.50
2023-01-13T04:34:28.199Z,8.50
2023-01-13T04:36:54.963Z,8.50
2023-01-13T04:39:21.508Z,8.60
2023-01-13T04:42:01.194Z,8.60
2023-01-13T04:44:28.374Z,8.60
2023-01-13T04:46:54.911Z,8.70
2023-01-13T04:49:21.493Z,8.60
2023-01-13T04:51:48.035Z,8.70
2023-01-13T04:54:15.260Z,8.70
2023-01-13T04:56:41.930Z,8.60
2023-01-13T04:59:09.573Z,8.50
2023-01-13T05:01:36.385Z,8.50
2023-01-13T05:04:03.195Z,8.50
2023-01-13T05:06:29.877Z,8.50
2023-01-13T05:12:06.442Z,8.40
2023-01-13T05:14:51.586Z,8.40
2023-01-13T05:17:22.825Z,8.50
2023-01-13T05:19:49.634Z,8.50
2023-01-13T05:22:34.824Z,8.50
2023-01-13T05:25:19.969Z,8.40
2023-01-13T05:27:46.542Z,8.40
2023-01-13T05:30:13.509Z,8.50
2023-01-13T05:32:40.298Z,8.50
2023-01-13T05:35:06.932Z,8.40
2023-01-13T05:37:33.479Z,8.40
2023-01-13T05:40:18.799Z,8.40
2023-01-13T05:43:03.928Z,8.40
2023-01-13T05:45:31.494Z,8.50
2023-01-13T05:47:58.411Z,8.50
2023-01-13T05:50:24.992Z,8.50
2023-01-13T05:52:51.486Z,8.60
2023-01-13T05:55:17.999Z,8.60
2023-01-13T05:57:44.619Z,8.60
2023-01-13T06:00:11.409Z,8.60
2023-01-13T06:02:38.073Z,8.60
2023-01-13T06:05:04.805Z,8.60
2023-01-13T06:07:31.501Z,8.50
2023-01-13T06:09:58.025Z,8.50
2023-01-13T06:12:24.516Z,8.50
2023-01-13T06:14:51.045Z,8.50
2023-01-13T06:17:17.720Z,8.40
2023-01-13T06:19:44.226Z,8.50
2023-01-13T06:22:13.488Z,8.40
2023-01-13T06:24:40.034Z,8.40
2023-01-13T06:27:07.726Z,8.50
2023-01-13T06:29:34.430Z,8.50
2023-01-13T06:32:06.353Z,8.50
2023-01-13T06:34:34.232Z,8.50
2023-01-13T06:37:01.530Z,8.50
2023-01-13T06:39:30.962Z,8.50
2023-01-13T06:42:16.923Z,8.60
2023-01-13T06:44:44.448Z,8.60
2023-01-13T06:47:11.007Z,8.60
2023-01-13T06:49:37.517Z,8.60
2023-01-13T06:52:05.993Z,8.60
2023-01-13T06:54:32.652Z,8.70
2023-01-13T06:56:59.149Z,8.70
2023-01-13T06:59:25.770Z,8.70
2023-01-13T07:01:52.562Z,8.70
2023-01-13T07:04:19.365Z,8.70
2023-01-13T07:06:45.863Z,8.70
2023-01-13T07:09:12.521Z,8.70
2023-01-13T07:11:39.028Z,8.80
2023-01-13T07:14:24.439Z,8.80
2023-01-13T07:16:51.979Z,8.80
2023-01-13T07:19:23.231Z,8.80
2023-01-13T07:21:51.009Z,8.80
2023-01-13T07:24:17.663Z,8.90
2023-01-13T07:26:44.207Z,8.90
2023-01-13T07:29:10.819Z,9.00
2023-01-13T07:31:37.550Z,9.00
2023-01-13T07:34:04.243Z,9.00
2023-01-13T07:36:30.817Z,9.00
2023-01-13T07:38:57.382Z,9.00
2023-01-13T07:41:42.542Z,8.90
2023-01-13T07:44:10.751Z,8.90
2023-01-13T07:46:38.042Z,8.90
2023-01-13T07:49:04.994Z,8.90
2023-01-13T07:51:31.665Z,8.90
2023-01-13T07:53:58.190Z,8.90
2023-01-13T07:56:24.693Z,8.90
2023-01-13T07:58:52.906Z,9.00
2023-01-13T08:01:19.681Z,9.00
2023-01-13T08:03:46.329Z,9.00
2023-01-13T08:06:13.643Z,9.00
2023-01-13T08:08:40.181Z,9.10
2023-01-13T08:11:07.454Z,9.10
2023-01-13T08:13:33.997Z,9.20
2023-01-13T08:16:01.964Z,9.20
2023-01-13T08:18:28.782Z,9.20
2023-01-13T08:20:55.418Z,9.20
2023-01-13T08:23:22.615Z,9.20
2023-01-13T08:25:49.643Z,9.20
2023-01-13T08:28:16.484Z,9.30
2023-01-13T08:30:43.175Z,9.30
2023-01-13T08:33:10.351Z,9.30
2023-01-13T08:35:37.977Z,9.30
2023-01-13T08:38:05.416Z,9.30
2023-01-13T08:40:32.141Z,9.30
2023-01-13T08:42:59.362Z,9.20
2023-01-13T08:45:26.150Z,8.20
2023-01-13T08:47:52.693Z,7.60
2023-01-13T08:50:19.850Z,7.30
2023-01-13T08:52:46.362Z,7.20
2023-01-13T08:55:12.941Z,7.00
2023-01-13T08:57:39.524Z,7.00
2023-01-13T09:00:07.207Z,6.90
2023-01-13T09:02:34.073Z,6.90
2023-01-13T09:05:03.573Z,6.90
2023-01-13T09:07:30.468Z,6.90
2023-01-13T09:09:57.110Z,6.90
2023-01-13T09:12:42.347Z,6.80
2023-01-13T09:15:09.023Z,6.80
2023-01-13T09:17:36.325Z,6.90
2023-01-13T09:20:02.887Z,6.90
2023-01-13T09:22:29.449Z,6.90
2023-01-13T09:24:56.108Z,6.90
2023-01-13T09:27:23.001Z,6.90
2023-01-13T09:29:49.776Z,6.80
2023-01-13T09:32:16.456Z,6.80
2023-01-13T09:35:01.576Z,6.80
2023-01-13T09:37:35.798Z,6.80
2023-01-13T09:40:04.228Z,6.90
2023-01-13T09:42:59.583Z,7.00
2023-01-13T09:45:29.159Z,7.00
2023-01-13T09:48:02.013Z,7.00
2023-01-13T09:50:28.555Z,7.10
2023-01-13T09:52:55.341Z,7.10
2023-01-13T09:55:36.635Z,7.20
2023-01-13T09:58:11.180Z,7.20
2023-01-13T10:00:44.586Z,7.20
2023-01-13T10:03:25.377Z,7.30
2023-01-13T10:06:04.702Z,7.20
2023-01-13T10:08:33.361Z,7.20
2023-01-13T10:11:00.999Z,7.20
2023-01-13T10:13:29.741Z,7.30
2023-01-13T10:15:56.482Z,7.40
2023-01-13T10:18:27.996Z,7.50
2023-01-13T10:21:03.351Z,7.60
2023-01-13T10:23:38.988Z,7.70
2023-01-13T10:26:25.356Z,7.80
2023-01-13T10:28:55.666Z,7.90
2023-01-13T10:31:23.477Z,7.90
2023-01-13T10:33:57.990Z,7.90
2023-01-13T10:36:24.607Z,7.90
2023-01-13T10:38:51.501Z,7.90
2023-01-13T10:41:23.437Z,7.90
2023-01-13T10:44:29.197Z,7.80
2023-01-13T10:46:57.007Z,7.90
2023-01-13T10:49:33.770Z,7.90
2023-01-13T10:52:01.882Z,7.90
2023-01-13T10:54:28.517Z,8.00
2023-01-13T10:57:12.471Z,8.00
2023-01-13T10:59:39.028Z,8.00
2023-01-13T11:02:24.189Z,8.00
2023-01-13T11:04:54.123Z,8.10
2023-01-13T11:07:34.694Z,8.10
2023-01-13T11:10:20.308Z,8.10
2023-01-13T11:12:57.658Z,8.00
2023-01-13T11:15:31.677Z,7.90
2023-01-13T11:18:01.314Z,7.90
2023-01-13T11:20:36.851Z,7.90
2023-01-13T11:23:07.531Z,7.80
2023-01-13T11:25:42.917Z,7.70
2023-01-13T11:28:29.012Z,7.80
2023-01-13T11:30:58.677Z,7.80
2023-01-13T11:33:31.731Z,7.80
2023-01-13T11:36:03.078Z,7.90
2023-01-13T11:38:33.716Z,7.90
2023-01-13T11:41:08.829Z,7.90
2023-01-13T11:43:39.668Z,7.90
2023-01-13T11:46:06.478Z,7.90
2023-01-13T11:48:36.242Z,7.90
2023-01-13T11:51:11.967Z,7.90
2023-01-13T11:54:00.587Z,8.00
2023-01-13T11:56:34.882Z,8.00
2023-01-13T11:59:01.377Z,8.00
2023-01-13T12:01:39.193Z,8.00
2023-01-13T12:04:17.115Z,8.00
2023-01-13T12:06:44.388Z,7.90
2023-01-13T12:09:19.112Z,7.90
2023-01-13T12:12:10.459Z,7.90
2023-01-13T12:14:50.849Z,7.90
2023-01-13T12:17:26.130Z,7.90
2023-01-13T12:19:52.655Z,8.00
2023-01-13T12:22:26.677Z,8.10
2023-01-13T12:24:56.103Z,8.20
2023-01-13T12:27:40.623Z,8.20
2023-01-13T12:30:20.993Z,8.20
2023-01-13T12:32:48.375Z,8.20
2023-01-13T12:35:31.803Z,8.20
2023-01-13T12:38:03.942Z,8.20
2023-01-13T12:40:38.655Z,8.20
2023-01-13T12:43:33.216Z,8.20
2023-01-13T12:46:18.340Z,8.20
2023-01-13T12:48:53.039Z,8.10
2023-01-13T12:51:23.619Z,8.10
2023-01-13T12:53:50.463Z,8.20
2023-01-13T12:56:20.029Z,8.20
2023-01-13T12:58:47.923Z,8.20
2023-01-13T13:01:14.958Z,8.10
2023-01-13T13:03:41.875Z,8.10
2023-01-13T13:06:22.020Z,8.00
2023-01-13T13:09:03.140Z,8.00
2023-01-13T13:11:58.718Z,8.00
2023-01-13T13:14:37.521Z,8.00
2023-01-13T13:17:25.391Z,7.90
2023-01-13T13:19:51.938Z,7.90
2023-01-13T13:22:19.606Z,7.90
2023-01-13T13:24:49.179Z,7.90
2023-01-13T13:27:19.783Z,7.80
2023-01-13T13:29:57.614Z,7.80
2023-01-13T13:32:44.473Z,7.80
2023-01-13T13:35:23.375Z,7.80
2023-01-13T13:38:27.848Z,7.90
2023-01-13T13:41:12.755Z,7.80
2023-01-13T13:43:59.284Z,7.90
2023-01-13T13:46:48.057Z,7.90
2023-01-13T13:49:17.826Z,7.90
2023-01-13T13:51:49.127Z,7.90
2023-01-13T13:54:21.143Z,7.90
2023-01-13T13:56:48.664Z,7.90
2023-01-13T13:59:21.202Z,7.90
2023-01-13T14:01:50.460Z,7.80
2023-01-13T14:04:25.904Z,7.80
2023-01-13T14:07:12.785Z,7.90
2023-01-13T14:09:44.956Z,7.90
2023-01-13T14:12:25.143Z,7.80
2023-01-13T14:14:52.258Z,7.80
2023-01-13T14:17:25.615Z,7.80
2023-01-13T14:20:01.573Z,7.70
2023-01-13T14:22:28.354Z,7.70
2023-01-13T14:24:57.486Z,7.70
2023-01-13T14:27:27.364Z,7.80
2023-01-13T14:29:58.655Z,7.80
2023-01-13T14:32:29.928Z,7.80
2023-01-13T14:34:56.551Z,7.70
2023-01-13T14:37:26.311Z,7.60
2023-01-13T14:39:52.851Z,7.60
2023-01-13T14:42:20.060Z,7.60
2023-01-13T14:44:47.438Z,7.50
2023-01-13T14:47:25.328Z,7.60
2023-01-13T14:50:02.284Z,7.60
2023-01-13T14:52:30.282Z,7.60
2023-01-13T14:54:59.700Z,7.60
2023-01-13T14:57:31.366Z,7.60
2023-01-13T15:00:03.977Z,7.70
2023-01-13T15:02:30.540Z,7.70
2023-01-13T15:04:59.184Z,7.70
2023-01-13T15:07:30.183Z,7.70
2023-01-13T15:09:58.156Z,7.70
2023-01-13T15:12:35.972Z,7.80
2023-01-13T15:15:04.260Z,7.70
2023-01-13T15:17:31.059Z,7.70
2023-01-13T15:19:57.697Z,7.70
2023-01-13T15:22:24.267Z,7.60
2023-01-13T15:24:51.076Z,7.70
2023-01-13T15:27:19.429Z,7.50
2023-01-13T15:29:45.989Z,7.50
2023-01-13T15:32:19.740Z,7.40
2023-01-13T15:34:46.911Z,7.30
2023-01-13T15:37:19.658Z,7.30
2023-01-13T15:39:46.600Z,7.40
2023-01-13T15:42:31.832Z,7.40
2023-01-13T15:45:17.126Z,7.40
2023-01-13T15:47:44.371Z,7.30
2023-01-13T15:50:17.501Z,7.20
2023-01-13T15:52:44.278Z,7.20
2023-01-13T15:55:10.978Z,7.00
2023-01-13T15:57:38.566Z,6.90
2023-01-13T16:00:08.064Z,6.80
2023-01-13T16:02:34.919Z,6.70
2023-01-13T16:05:01.685Z,6.60
2023-01-13T16:07:28.212Z,6.50
2023-01-13T16:09:54.753Z,6.50
2023-01-13T16:12:21.430Z,6.40
2023-01-13T16:14:47.980Z,6.40
2023-01-13T16:17:17.079Z,6.40
2023-01-13T16:19:44.225Z,6.20
2023-01-13T16:22:13.098Z,6.20
2023-01-13T16:24:40.671Z,6.10
2023-01-13T16:27:14.822Z,6.10
2023-01-13T16:29:41.799Z,6.00
2023-01-13T16:32:08.367Z,5.90
2023-01-13T16:34:34.950Z,5.90
2023-01-13T16:37:01.905Z,5.90
2023-01-13T16:39:30.869Z,5.90
2023-01-13T16:41:57.418Z,5.90
2023-01-13T16:44:23.949Z,5.80
2023-01-13T16:46:50.783Z,5.70
2023-01-13T16:49:17.772Z,5.70
2023-01-13T16:51:44.382Z,5.70
2023-01-13T16:54:11.910Z,5.70
2023-01-13T16:56:38.474Z,5.70
2023-01-13T16:59:07.604Z,5.80
2023-01-13T17:01:35.534Z,5.70
2023-01-13T17:04:02.733Z,5.80
2023-01-13T17:06:32.351Z,5.80
2023-01-13T17:09:06.381Z,5.80
2023-01-13T17:11:33.401Z,6.00
2023-01-13T17:14:00.178Z,6.00
2023-01-13T17:16:28.033Z,6.00
2023-01-13T17:18:54.740Z,6.00
2023-01-13T17:21:21.389Z,6.10
2023-01-13T17:23:48.129Z,6.10
2023-01-13T17:26:37.270Z,6.10
2023-01-13T17:29:05.222Z,6.10
2023-01-13T17:31:32.031Z,6.10
2023-01-13T17:33:58.568Z,6.20
2023-01-13T17:36:25.796Z,6.20
2023-01-13T17:38:52.625Z,6.20
2023-01-13T17:41:19.295Z,6.30
2023-01-13T17:43:45.945Z,6.40
2023-01-13T17:46:13.086Z,6.40
2023-01-13T17:48:39.594Z,6.50
2023-01-13T17:51:11.565Z,6.50
2023-01-13T17:53:40.765Z,6.60
2023-01-13T17:56:08.598Z,6.60
2023-01-13T17:58:35.367Z,6.60
2023-01-13T18:01:06.628Z,6.60
2023-01-13T18:03:33.170Z,6.60
2023-01-13T18:06:06.927Z,6.60
2023-01-13T18:08:33.434Z,6.60
2023-01-13T18:11:00.858Z,6.60
2023-01-13T18:13:28.120Z,6.50
2023-01-13T18:16:03.093Z,6.60
2023-01-13T18:18:29.742Z,6.60
2023-01-13T18:21:15.176Z,6.60
2023-01-13T18:24:00.244Z,6.60
2023-01-13T18:26:46.248Z,6.60
2023-01-13T18:29:12.811Z,6.60
2023-01-13T18:31:39.385Z,6.60
2023-01-13T18:34:05.879Z,6.60
2023-01-13T18:36:32.415Z,6.60
2023-01-13T18:38:59.029Z,6.60
2023-01-13T18:41:44.486Z,6.60
2023-01-13T18:44:10.979Z,6.60
2023-01-13T18:46:37.547Z,6.50
2023-01-13T18:49:04.285Z,6.50
2023-01-13T18:51:30.778Z,6.40
2023-01-13T18:53:57.399Z,6.40
2023-01-13T18:56:25.066Z,6.50
2023-01-13T18:58:52.349Z,6.50
2023-01-13T19:01:22.458Z,6.50
2023-01-13T19:03:54.326Z,6.50
2023-01-13T19:06:21.217Z,6.50
2023-01-13T19:08:52.941Z,6.50
2023-01-13T19:11:20.545Z,6.50
2023-01-13T19:13:47.813Z,6.60
2023-01-13T19:16:14.375Z,6.50
2023-01-13T19:18:41.226Z,6.40
2023-01-13T19:21:07.897Z,6.40
2023-01-13T19:23:34.398Z,6.50
2023-01-13T19:26:05.402Z,6.50
2023-01-13T19:28:31.934Z,6.40
2023-01-13T19:31:05.444Z,6.40
2023-01-13T19:33:34.013Z,6.40
2023-01-13T19:36:01.110Z,6.40
2023-01-13T19:38:27.648Z,6.50
2023-01-13T19:40:58.718Z,6.50
2023-01-13T19:43:44.668Z,6.50
2023-01-13T19:46:11.882Z,6.50
2023-01-13T19:48:38.726Z,6.50
2023-01-13T19:51:05.748Z,6.50
2023-01-13T19:53:32.598Z,6.50
2023-01-13T19:55:59.325Z,6.50
2023-01-13T19:58:26.189Z,6.50
2023-01-13T20:00:53.693Z,6.60
2023-01-13T20:03:24.141Z,6.60
2023-01-13T20:05:51.187Z,6.70
2023-01-13T20:08:18.711Z,6.70
2023-01-13T20:10:45.749Z,6.70
2023-01-13T20:13:12.410Z,6.70
2023-01-13T20:15:39.243Z,6.70
2023-01-13T20:18:06.025Z,6.80
2023-01-13T20:20:32.548Z,6.70
2023-01-13T20:22:59.559Z,6.70
2023-01-13T20:25:28.570Z,6.70
2023-01-13T20:27:56.051Z,6.80
2023-01-13T20:30:23.028Z,6.80
2023-01-13T20:32:49.637Z,6.80
2023-01-13T20:35:17.071Z,6.80
2023-01-13T20:37:43.851Z,6.80
2023-01-13T20:40:12.882Z,6.80
2023-01-13T20:42:45.085Z,6.80
2023-01-13T20:45:17.723Z,6.80
2023-01-13T20:47:44.552Z,6.70
2023-01-13T20:50:11.787Z,6.80
2023-01-13T20:52:38.331Z,6.80
2023-01-13T20:55:08.289Z,6.80
2023-01-13T20:57:35.319Z,6.70
2023-01-13T21:00:02.752Z,6.70
2023-01-13T21:02:29.516Z,6.60
2023-01-13T21:04:56.156Z,6.50
2023-01-13T21:07:22.680Z,6.50
2023-01-13T21:09:49.289Z,6.50
2023-01-13T21:12:35.003Z,6.50
2023-01-13T21:15:20.140Z,6.60
2023-01-13T21:18:06.165Z,6.70
2023-01-13T21:20:33.628Z,6.80
2023-01-13T21:23:00.857Z,6.80
2023-01-13T21:25:27.600Z,6.80
2023-01-13T21:27:54.923Z,6.80
2023-01-13T21:30:21.489Z,6.80
2023-01-13T21:32:47.991Z,6.90
2023-01-13T21:35:15.052Z,6.90
2023-01-13T21:37:42.474Z,6.90
2023-01-13T21:40:10.166Z,6.90
2023-01-13T21:42:55.180Z,6.90
2023-01-13T21:45:40.387Z,6.90
2023-01-13T21:48:10.424Z,6.90
2023-01-13T21:50:38.101Z,6.80
2023-01-13T21:53:04.787Z,6.70
2023-01-13T21:55:32.692Z,6.70
2023-01-13T21:58:00.962Z,6.70
2023-01-13T22:00:31.275Z,6.70
2023-01-13T22:02:59.489Z,6.70
2023-01-13T22:05:26.047Z,6.70
2023-01-13T22:07:52.999Z,6.60
2023-01-13T22:10:23.551Z,6.60
2023-01-13T22:12:53.433Z,6.60
2023-01-13T22:15:20.464Z,6.70
2023-01-13T22:17:49.745Z,6.70
2023-01-13T22:20:16.935Z,6.80
2023-01-13T22:22:43.471Z,6.80
2023-01-13T22:25:11.514Z,6.70
2023-01-13T22:27:43.055Z,6.80
2023-01-13T22:30:14.050Z,6.80
2023-01-13T22:32:40.584Z,6.80
2023-01-13T22:35:08.007Z,6.80
2023-01-13T22:37:35.075Z,6.80
2023-01-13T22:40:01.836Z,6.90
2023-01-13T22:42:28.437Z,6.80
2023-01-13T22:44:54.960Z,6.90
2023-01-13T22:47:21.481Z,6.90
2023-01-13T22:49:47.973Z,6.90
2023-01-13T22:52:15.963Z,6.90
2023-01-13T22:54:42.623Z,6.90
2023-01-13T22:57:09.527Z,7.00
2023-01-13T22:59:36.022Z,6.90
2023-01-13T23:02:02.613Z,6.90
2023-01-13T23:04:29.153Z,6.80
2023-01-13T23:06:55.720Z,6.80
2023-01-13T23:09:22.231Z,6.80
2023-01-13T23:11:48.714Z,6.80
2023-01-13T23:14:15.295Z,6.80
2023-01-13T23:16:41.945Z,6.80
2023-01-13T23:19:08.611Z,6.80
2023-01-13T23:21:36.160Z,6.80
2023-01-13T23:24:03.381Z,6.80
2023-01-13T23:26:30.548Z,6.70
2023-01-13T23:29:00.825Z,6.60
2023-01-13T23:31:27.905Z,6.60
2023-01-13T23:33:54.402Z,6.60
2023-01-13T23:36:23.039Z,6.50
2023-01-13T23:38:50.089Z,6.40
2023-01-13T23:41:18.042Z,6.40
2023-01-13T23:43:48.980Z,6.40
2023-01-13T23:46:16.812Z,6.50
2023-01-13T23:48:43.380Z,6.50
2023-01-13T23:51:11.604Z,6.40
2023-01-13T23:53:40.455Z,6.40
2023-01-13T23:56:08.350Z,6.40
2023-01-13T23:58:35.239Z,6.30
